Forside
METAR-TAF:

METAR-TAF

Lufthavne :

Centralia Municipal Airport

Centralia, Illinois, USA

Breddekreds: 38-30-53N, længdekreds: 089-05-32W, højde: 163 m

Aktuelle vejr

Denne rapport blev lavet for 1 time og 13 minutter siden, kl. 22:35 UTC
Vind 8 kt fra nord
Temperatur 0°C
Fugtighed 59%
Tryk 1028 hPa
Sigt: 16.1 km
Brudte skyer i en højde af 9000 ft
Overskyet i en højde af 11000 ft

METAR: KENL 142235Z AUTO 01008KT 10SM BKN090 OVC110 00/M07 A3036 RMK AO2 T00001067

Tid: 17:48 (23:48 UTC)


TAF: fraværende

Vejrobservationer og prognoser fra mere end 4000 lufthavne (METAR og TAF).

De gule og røde prikker repræsenterer de meteorologiske stationer.

Flyt musen over at se navnet på stationen.

Så klik over at se vejr observationer og prognoser.

At skifte det kort: Klik på de grønne knapper med et sort kors for at zoome ind; på den grønne knap med en bindestreg for at zoome ud; eller på de grønne pile for tilstødende kort.


METAR-TAF: